Terminal Aerodrome Forecast
Issued by NWS

Home | Current Version | Previous Version | Text Only | Print | Product List | Glossary On
Versions: 1 2 3 4 5 6 7 8 9 10 11 12 13
000
FTUS42 TJSJ 251143
TAFJPS
TAF
TJPS 251143Z 2512/2612 06004KT P6SM FEW035 FEW070
     FM251400 16010KT P6SM FEW030 FEW060
     FM252300 06005KT P6SM FEW030 FEW070
      AMD NOT SKED 2512/2603=

USA.gov is the U.S. government's official web portal to all federal, state and local government web resources and services.